sensor_id;sensor_type;location;lat;lon;timestamp;P1;durP1;ratioP1;P2;durP2;ratioP2
39654;SDS011;25336;59.944;11.010;2022-09-03T00:02:13;3.50;;;1.20;;
39654;SDS011;25336;59.944;11.010;2022-09-03T00:07:50;3.40;;;1.00;;
39654;SDS011;25336;59.944;11.010;2022-09-03T00:10:24;2.33;;;0.95;;
39654;SDS011;25336;59.944;11.010;2022-09-03T00:13:11;2.33;;;0.90;;
39654;SDS011;25336;59.944;11.010;2022-09-03T00:15:41;1.02;;;0.80;;
39654;SDS011;25336;59.944;11.010;2022-09-03T00:18:08;1.67;;;0.68;;
39654;SDS011;25336;59.944;11.010;2022-09-03T00:20:41;1.85;;;1.13;;
39654;SDS011;25336;59.944;11.010;2022-09-03T00:23:32;0.70;;;0.70;;
39654;SDS011;25336;59.944;11.010;2022-09-03T00:28:40;0.95;;;0.88;;
39654;SDS011;25336;59.944;11.010;2022-09-03T00:33:45;0.88;;;0.88;;
39654;SDS011;25336;59.944;11.010;2022-09-03T00:36:17;1.38;;;0.93;;
39654;SDS011;25336;59.944;11.010;2022-09-03T00:38:47;0.70;;;0.70;;
39654;SDS011;25336;59.944;11.010;2022-09-03T00:41:57;1.25;;;1.15;;
39654;SDS011;25336;59.944;11.010;2022-09-03T00:44:32;0.90;;;0.90;;
39654;SDS011;25336;59.944;11.010;2022-09-03T00:50:54;1.50;;;1.20;;
39654;SDS011;25336;59.944;11.010;2022-09-03T00:59:27;3.45;;;0.80;;
39654;SDS011;25336;59.944;11.010;2022-09-03T01:02:23;2.20;;;1.13;;
39654;SDS011;25336;59.944;11.010;2022-09-03T01:07:45;0.98;;;0.93;;
39654;SDS011;25336;59.944;11.010;2022-09-03T01:15:34;0.90;;;0.85;;
39654;SDS011;25336;59.944;11.010;2022-09-03T01:18:17;2.30;;;0.90;;
39654;SDS011;25336;59.944;11.010;2022-09-03T01:21:03;1.65;;;1.00;;
39654;SDS011;25336;59.944;11.010;2022-09-03T01:46:11;1.77;;;1.00;;
39654;SDS011;25336;59.944;11.010;2022-09-03T01:48:46;0.73;;;0.73;;
39654;SDS011;25336;59.944;11.010;2022-09-03T01:51:27;2.72;;;0.90;;
39654;SDS011;25336;59.944;11.010;2022-09-03T02:01:57;1.95;;;1.00;;
39654;SDS011;25336;59.944;11.010;2022-09-03T02:04:27;1.45;;;1.20;;
39654;SDS011;25336;59.944;11.010;2022-09-03T02:06:53;0.95;;;0.80;;
39654;SDS011;25336;59.944;11.010;2022-09-03T02:09:22;1.60;;;1.10;;
39654;SDS011;25336;59.944;11.010;2022-09-03T02:11:59;1.13;;;1.02;;
39654;SDS011;25336;59.944;11.010;2022-09-03T02:14:38;2.03;;;1.30;;
39654;SDS011;25336;59.944;11.010;2022-09-03T02:17:04;1.27;;;1.15;;
39654;SDS011;25336;59.944;11.010;2022-09-03T02:19:33;1.95;;;1.10;;
39654;SDS011;25336;59.944;11.010;2022-09-03T02:22:01;2.10;;;0.90;;
39654;SDS011;25336;59.944;11.010;2022-09-03T02:24:28;2.25;;;1.02;;
39654;SDS011;25336;59.944;11.010;2022-09-03T02:26:54;1.30;;;0.95;;
39654;SDS011;25336;59.944;11.010;2022-09-03T02:29:20;1.20;;;1.00;;
39654;SDS011;25336;59.944;11.010;2022-09-03T02:31:46;1.25;;;1.00;;
39654;SDS011;25336;59.944;11.010;2022-09-03T02:34:11;1.15;;;0.82;;
39654;SDS011;25336;59.944;11.010;2022-09-03T02:36:39;1.00;;;1.00;;
39654;SDS011;25336;59.944;11.010;2022-09-03T02:39:10;1.50;;;1.00;;
39654;SDS011;25336;59.944;11.010;2022-09-03T02:41:36;1.23;;;0.95;;
39654;SDS011;25336;59.944;11.010;2022-09-03T02:46:53;1.95;;;0.70;;
39654;SDS011;25336;59.944;11.010;2022-09-03T02:49:22;0.77;;;0.77;;
39654;SDS011;25336;59.944;11.010;2022-09-03T02:51:48;1.83;;;1.10;;
39654;SDS011;25336;59.944;11.010;2022-09-03T02:54:14;0.95;;;0.90;;
39654;SDS011;25336;59.944;11.010;2022-09-03T02:56:39;0.80;;;0.77;;
39654;SDS011;25336;59.944;11.010;2022-09-03T02:59:06;2.50;;;0.90;;
39654;SDS011;25336;59.944;11.010;2022-09-03T03:01:33;1.67;;;0.93;;
39654;SDS011;25336;59.944;11.010;2022-09-03T03:04:00;1.55;;;1.35;;
39654;SDS011;25336;59.944;11.010;2022-09-03T03:06:26;0.98;;;0.85;;
39654;SDS011;25336;59.944;11.010;2022-09-03T03:08:52;3.40;;;0.95;;
39654;SDS011;25336;59.944;11.010;2022-09-03T03:11:20;1.10;;;1.00;;
39654;SDS011;25336;59.944;11.010;2022-09-03T03:13:47;5.72;;;1.40;;
39654;SDS011;25336;59.944;11.010;2022-09-03T03:16:13;1.83;;;0.98;;
39654;SDS011;25336;59.944;11.010;2022-09-03T03:18:40;1.73;;;1.13;;
39654;SDS011;25336;59.944;11.010;2022-09-03T03:21:08;1.27;;;0.93;;
39654;SDS011;25336;59.944;11.010;2022-09-03T03:23:35;0.80;;;0.80;;
39654;SDS011;25336;59.944;11.010;2022-09-03T03:26:03;3.13;;;1.13;;
39654;SDS011;25336;59.944;11.010;2022-09-03T03:28:30;1.65;;;1.30;;
39654;SDS011;25336;59.944;11.010;2022-09-03T03:31:03;1.05;;;1.00;;
39654;SDS011;25336;59.944;11.010;2022-09-03T03:33:33;1.30;;;0.82;;
39654;SDS011;25336;59.944;11.010;2022-09-03T03:36:03;1.58;;;1.15;;
39654;SDS011;25336;59.944;11.010;2022-09-03T03:38:39;2.05;;;1.17;;
39654;SDS011;25336;59.944;11.010;2022-09-03T03:41:16;0.90;;;0.90;;
39654;SDS011;25336;59.944;11.010;2022-09-03T03:43:46;0.80;;;0.80;;
39654;SDS011;25336;59.944;11.010;2022-09-03T03:46:12;1.02;;;0.90;;
39654;SDS011;25336;59.944;11.010;2022-09-03T03:48:39;1.30;;;1.08;;
39654;SDS011;25336;59.944;11.010;2022-09-03T03:51:06;0.98;;;0.82;;
39654;SDS011;25336;59.944;11.010;2022-09-03T03:53:33;0.93;;;0.80;;
39654;SDS011;25336;59.944;11.010;2022-09-03T03:56:01;1.40;;;0.80;;
39654;SDS011;25336;59.944;11.010;2022-09-03T03:58:29;0.85;;;0.82;;
39654;SDS011;25336;59.944;11.010;2022-09-03T04:01:02;1.58;;;0.80;;
39654;SDS011;25336;59.944;11.010;2022-09-03T04:03:55;1.02;;;1.00;;
39654;SDS011;25336;59.944;11.010;2022-09-03T04:06:22;3.97;;;1.13;;
39654;SDS011;25336;59.944;11.010;2022-09-03T04:08:48;1.00;;;1.00;;
39654;SDS011;25336;59.944;11.010;2022-09-03T04:11:15;1.00;;;0.90;;
39654;SDS011;25336;59.944;11.010;2022-09-03T04:13:43;1.45;;;1.15;;
39654;SDS011;25336;59.944;11.010;2022-09-03T04:16:14;1.25;;;1.20;;
39654;SDS011;25336;59.944;11.010;2022-09-03T04:18:45;1.00;;;0.90;;
39654;SDS011;25336;59.944;11.010;2022-09-03T04:21:13;1.42;;;1.10;;
39654;SDS011;25336;59.944;11.010;2022-09-03T04:23:42;1.35;;;1.10;;
39654;SDS011;25336;59.944;11.010;2022-09-03T04:26:10;1.33;;;0.90;;
39654;SDS011;25336;59.944;11.010;2022-09-03T04:28:37;1.52;;;1.08;;
39654;SDS011;25336;59.944;11.010;2022-09-03T04:31:03;1.17;;;0.90;;
39654;SDS011;25336;59.944;11.010;2022-09-03T04:33:31;4.18;;;1.65;;
39654;SDS011;25336;59.944;11.010;2022-09-03T04:38:31;4.20;;;1.30;;
39654;SDS011;25336;59.944;11.010;2022-09-03T04:40:58;4.13;;;1.20;;
39654;SDS011;25336;59.944;11.010;2022-09-03T04:43:24;1.10;;;0.82;;
39654;SDS011;25336;59.944;11.010;2022-09-03T04:45:54;2.17;;;1.30;;
39654;SDS011;25336;59.944;11.010;2022-09-03T04:48:21;1.35;;;1.05;;
39654;SDS011;25336;59.944;11.010;2022-09-03T04:50:47;1.13;;;1.10;;
39654;SDS011;25336;59.944;11.010;2022-09-03T04:53:12;0.98;;;0.88;;
39654;SDS011;25336;59.944;11.010;2022-09-03T04:55:38;1.65;;;1.23;;
39654;SDS011;25336;59.944;11.010;2022-09-03T04:58:04;1.75;;;1.10;;
39654;SDS011;25336;59.944;11.010;2022-09-03T05:00:31;1.70;;;1.15;;
39654;SDS011;25336;59.944;11.010;2022-09-03T05:03:00;1.20;;;1.10;;
39654;SDS011;25336;59.944;11.010;2022-09-03T05:05:27;1.25;;;1.00;;
39654;SDS011;25336;59.944;11.010;2022-09-03T05:07:52;1.15;;;1.05;;
39654;SDS011;25336;59.944;11.010;2022-09-03T05:10:22;1.30;;;1.15;;
39654;SDS011;25336;59.944;11.010;2022-09-03T05:13:01;1.65;;;1.55;;
39654;SDS011;25336;59.944;11.010;2022-09-03T05:15:29;2.50;;;1.10;;
39654;SDS011;25336;59.944;11.010;2022-09-03T05:17:57;2.13;;;1.20;;
39654;SDS011;25336;59.944;11.010;2022-09-03T05:20:24;2.22;;;1.27;;
39654;SDS011;25336;59.944;11.010;2022-09-03T05:22:50;2.15;;;1.13;;
39654;SDS011;25336;59.944;11.010;2022-09-03T05:25:16;1.02;;;1.02;;
39654;SDS011;25336;59.944;11.010;2022-09-03T05:27:41;1.27;;;1.17;;
39654;SDS011;25336;59.944;11.010;2022-09-03T05:30:07;1.75;;;1.30;;
39654;SDS011;25336;59.944;11.010;2022-09-03T05:32:33;1.65;;;1.30;;
39654;SDS011;25336;59.944;11.010;2022-09-03T05:34:59;3.17;;;1.20;;
39654;SDS011;25336;59.944;11.010;2022-09-03T05:37:24;2.78;;;2.13;;
39654;SDS011;25336;59.944;11.010;2022-09-03T05:39:50;1.63;;;1.20;;
39654;SDS011;25336;59.944;11.010;2022-09-03T05:42:16;1.13;;;1.10;;
39654;SDS011;25336;59.944;11.010;2022-09-03T05:44:41;1.15;;;1.08;;
39654;SDS011;25336;59.944;11.010;2022-09-03T05:47:08;1.20;;;1.10;;
39654;SDS011;25336;59.944;11.010;2022-09-03T05:49:34;3.38;;;1.20;;
39654;SDS011;25336;59.944;11.010;2022-09-03T05:52:00;1.73;;;1.13;;
39654;SDS011;25336;59.944;11.010;2022-09-03T05:54:25;1.55;;;0.98;;
39654;SDS011;25336;59.944;11.010;2022-09-03T05:56:51;1.98;;;0.90;;
39654;SDS011;25336;59.944;11.010;2022-09-03T05:59:17;1.15;;;1.05;;
39654;SDS011;25336;59.944;11.010;2022-09-03T06:01:44;1.58;;;1.00;;
39654;SDS011;25336;59.944;11.010;2022-09-03T06:04:11;1.10;;;1.00;;
39654;SDS011;25336;59.944;11.010;2022-09-03T06:06:42;1.05;;;1.05;;
39654;SDS011;25336;59.944;11.010;2022-09-03T06:09:12;3.28;;;1.23;;
39654;SDS011;25336;59.944;11.010;2022-09-03T06:11:41;1.65;;;1.48;;
39654;SDS011;25336;59.944;11.010;2022-09-03T06:14:09;1.25;;;1.15;;
39654;SDS011;25336;59.944;11.010;2022-09-03T06:16:37;1.45;;;1.35;;
39654;SDS011;25336;59.944;11.010;2022-09-03T06:19:05;2.55;;;1.20;;
39654;SDS011;25336;59.944;11.010;2022-09-03T06:21:33;1.20;;;1.10;;
39654;SDS011;25336;59.944;11.010;2022-09-03T06:24:07;1.40;;;1.30;;
39654;SDS011;25336;59.944;11.010;2022-09-03T06:26:34;3.58;;;1.20;;
39654;SDS011;25336;59.944;11.010;2022-09-03T06:29:00;2.90;;;1.65;;
39654;SDS011;25336;59.944;11.010;2022-09-03T06:31:26;2.58;;;1.30;;
39654;SDS011;25336;59.944;11.010;2022-09-03T06:33:52;4.10;;;1.30;;
39654;SDS011;25336;59.944;11.010;2022-09-03T06:36:18;1.50;;;1.35;;
39654;SDS011;25336;59.944;11.010;2022-09-03T06:38:45;1.40;;;1.30;;
39654;SDS011;25336;59.944;11.010;2022-09-03T06:41:12;1.20;;;1.10;;
39654;SDS011;25336;59.944;11.010;2022-09-03T06:43:44;2.20;;;1.10;;
39654;SDS011;25336;59.944;11.010;2022-09-03T06:46:11;2.55;;;1.08;;
39654;SDS011;25336;59.944;11.010;2022-09-03T06:48:38;1.00;;;1.00;;
39654;SDS011;25336;59.944;11.010;2022-09-03T06:51:08;2.63;;;1.13;;
39654;SDS011;25336;59.944;11.010;2022-09-03T06:53:37;1.35;;;1.25;;
39654;SDS011;25336;59.944;11.010;2022-09-03T06:58:35;1.17;;;1.02;;
39654;SDS011;25336;59.944;11.010;2022-09-03T07:01:05;1.50;;;1.17;;
39654;SDS011;25336;59.944;11.010;2022-09-03T07:03:33;1.15;;;1.05;;
39654;SDS011;25336;59.944;11.010;2022-09-03T07:06:00;1.23;;;1.13;;
39654;SDS011;25336;59.944;11.010;2022-09-03T07:08:31;0.95;;;0.93;;
39654;SDS011;25336;59.944;11.010;2022-09-03T07:10:58;0.90;;;0.90;;
39654;SDS011;25336;59.944;11.010;2022-09-03T07:13:28;0.82;;;0.82;;
39654;SDS011;25336;59.944;11.010;2022-09-03T07:16:01;1.75;;;1.48;;
39654;SDS011;25336;59.944;11.010;2022-09-03T07:18:28;1.10;;;1.10;;
39654;SDS011;25336;59.944;11.010;2022-09-03T07:20:58;0.95;;;0.85;;
39654;SDS011;25336;59.944;11.010;2022-09-03T07:23:29;1.35;;;1.00;;
39654;SDS011;25336;59.944;11.010;2022-09-03T07:25:56;1.83;;;1.20;;
39654;SDS011;25336;59.944;11.010;2022-09-03T07:28:24;1.30;;;1.10;;
39654;SDS011;25336;59.944;11.010;2022-09-03T07:30:51;1.20;;;1.10;;
39654;SDS011;25336;59.944;11.010;2022-09-03T07:33:17;0.93;;;0.90;;
39654;SDS011;25336;59.944;11.010;2022-09-03T07:35:43;0.82;;;0.82;;
39654;SDS011;25336;59.944;11.010;2022-09-03T07:38:09;1.05;;;1.00;;
39654;SDS011;25336;59.944;11.010;2022-09-03T07:40:36;1.48;;;1.00;;
39654;SDS011;25336;59.944;11.010;2022-09-03T07:43:03;1.35;;;1.10;;
39654;SDS011;25336;59.944;11.010;2022-09-03T07:45:29;0.98;;;0.98;;
39654;SDS011;25336;59.944;11.010;2022-09-03T07:47:57;1.30;;;1.20;;
39654;SDS011;25336;59.944;11.010;2022-09-03T07:50:23;2.53;;;1.33;;
39654;SDS011;25336;59.944;11.010;2022-09-03T07:52:48;2.58;;;1.00;;
39654;SDS011;25336;59.944;11.010;2022-09-03T07:55:19;1.02;;;0.98;;
39654;SDS011;25336;59.944;11.010;2022-09-03T07:57:45;1.65;;;1.10;;
39654;SDS011;25336;59.944;11.010;2022-09-03T08:00:11;1.40;;;1.00;;
39654;SDS011;25336;59.944;11.010;2022-09-03T08:02:37;0.90;;;0.90;;
39654;SDS011;25336;59.944;11.010;2022-09-03T08:05:03;1.60;;;0.90;;
39654;SDS011;25336;59.944;11.010;2022-09-03T08:07:29;1.00;;;0.93;;
39654;SDS011;25336;59.944;11.010;2022-09-03T08:09:55;1.05;;;1.00;;
39654;SDS011;25336;59.944;11.010;2022-09-03T08:12:21;1.52;;;0.95;;
39654;SDS011;25336;59.944;11.010;2022-09-03T08:14:47;1.13;;;1.10;;
39654;SDS011;25336;59.944;11.010;2022-09-03T08:17:12;1.05;;;1.05;;
39654;SDS011;25336;59.944;11.010;2022-09-03T08:19:38;1.52;;;1.42;;
39654;SDS011;25336;59.944;11.010;2022-09-03T08:22:07;0.90;;;0.90;;
39654;SDS011;25336;59.944;11.010;2022-09-03T08:24:34;0.90;;;0.90;;
39654;SDS011;25336;59.944;11.010;2022-09-03T08:27:00;1.17;;;1.05;;
39654;SDS011;25336;59.944;11.010;2022-09-03T08:29:25;1.15;;;1.05;;
39654;SDS011;25336;59.944;11.010;2022-09-03T08:31:51;1.92;;;1.05;;
39654;SDS011;25336;59.944;11.010;2022-09-03T08:34:17;1.40;;;1.30;;
39654;SDS011;25336;59.944;11.010;2022-09-03T08:36:44;1.77;;;1.10;;
39654;SDS011;25336;59.944;11.010;2022-09-03T08:39:11;1.30;;;1.20;;
39654;SDS011;25336;59.944;11.010;2022-09-03T08:47:14;3.13;;;0.95;;
39654;SDS011;25336;59.944;11.010;2022-09-03T08:58:05;2.42;;;1.38;;
39654;SDS011;25336;59.944;11.010;2022-09-03T09:06:11;1.30;;;1.20;;
39654;SDS011;25336;59.944;11.010;2022-09-03T09:19:16;1.13;;;0.90;;
39654;SDS011;25336;59.944;11.010;2022-09-03T09:22:08;1.98;;;0.90;;
39654;SDS011;25336;59.944;11.010;2022-09-03T09:24:46;3.65;;;1.23;;
39654;SDS011;25336;59.944;11.010;2022-09-03T09:27:15;1.58;;;1.13;;
39654;SDS011;25336;59.944;11.010;2022-09-03T09:29:41;3.92;;;1.00;;
39654;SDS011;25336;59.944;11.010;2022-09-03T09:32:11;1.70;;;1.17;;
39654;SDS011;25336;59.944;11.010;2022-09-03T09:34:41;1.00;;;1.00;;
39654;SDS011;25336;59.944;11.010;2022-09-03T09:37:11;1.05;;;0.95;;
39654;SDS011;25336;59.944;11.010;2022-09-03T09:39:40;4.00;;;1.00;;
39654;SDS011;25336;59.944;11.010;2022-09-03T09:42:19;1.20;;;0.90;;
39654;SDS011;25336;59.944;11.010;2022-09-03T09:44:46;1.83;;;1.10;;
39654;SDS011;25336;59.944;11.010;2022-09-03T09:47:29;1.15;;;1.00;;
39654;SDS011;25336;59.944;11.010;2022-09-03T09:50:03;3.53;;;1.00;;
39654;SDS011;25336;59.944;11.010;2022-09-03T09:52:45;1.05;;;0.90;;
39654;SDS011;25336;59.944;11.010;2022-09-03T09:55:15;1.67;;;0.90;;
39654;SDS011;25336;59.944;11.010;2022-09-03T09:57:43;0.95;;;0.95;;
39654;SDS011;25336;59.944;11.010;2022-09-03T10:00:10;5.97;;;1.88;;
39654;SDS011;25336;59.944;11.010;2022-09-03T10:02:37;0.90;;;0.90;;
39654;SDS011;25336;59.944;11.010;2022-09-03T10:08:05;3.25;;;1.00;;
39654;SDS011;25336;59.944;11.010;2022-09-03T10:10:43;0.82;;;0.82;;
39654;SDS011;25336;59.944;11.010;2022-09-03T10:13:16;3.83;;;1.10;;
39654;SDS011;25336;59.944;11.010;2022-09-03T10:16:19;1.83;;;0.80;;
39654;SDS011;25336;59.944;11.010;2022-09-03T10:21:29;0.90;;;0.90;;
39654;SDS011;25336;59.944;11.010;2022-09-03T10:26:39;1.85;;;1.30;;
39654;SDS011;25336;59.944;11.010;2022-09-03T10:29:09;1.20;;;1.10;;
39654;SDS011;25336;59.944;11.010;2022-09-03T10:34:20;2.88;;;0.90;;
39654;SDS011;25336;59.944;11.010;2022-09-03T10:37:24;1.77;;;1.05;;
39654;SDS011;25336;59.944;11.010;2022-09-03T10:43:08;1.27;;;1.17;;
39654;SDS011;25336;59.944;11.010;2022-09-03T10:48:47;1.63;;;1.52;;
39654;SDS011;25336;59.944;11.010;2022-09-03T10:51:45;4.28;;;2.78;;
39654;SDS011;25336;59.944;11.010;2022-09-03T11:04:49;5.03;;;2.97;;
39654;SDS011;25336;59.944;11.010;2022-09-03T11:07:21;5.93;;;2.67;;
39654;SDS011;25336;59.944;11.010;2022-09-03T11:12:44;2.55;;;1.48;;
39654;SDS011;25336;59.944;11.010;2022-09-03T11:20:43;1.20;;;1.10;;
39654;SDS011;25336;59.944;11.010;2022-09-03T11:23:09;1.75;;;1.20;;
39654;SDS011;25336;59.944;11.010;2022-09-03T11:25:41;1.17;;;1.08;;
39654;SDS011;25336;59.944;11.010;2022-09-03T11:31:04;1.38;;;1.30;;
39654;SDS011;25336;59.944;11.010;2022-09-03T11:36:34;2.30;;;1.48;;
39654;SDS011;25336;59.944;11.010;2022-09-03T11:42:07;1.40;;;1.30;;
39654;SDS011;25336;59.944;11.010;2022-09-03T11:44:37;3.17;;;1.35;;
39654;SDS011;25336;59.944;11.010;2022-09-03T11:47:19;2.30;;;1.45;;
39654;SDS011;25336;59.944;11.010;2022-09-03T11:50:06;1.42;;;1.33;;
39654;SDS011;25336;59.944;11.010;2022-09-03T11:52:40;1.88;;;1.13;;
39654;SDS011;25336;59.944;11.010;2022-09-03T11:55:06;1.27;;;1.17;;
39654;SDS011;25336;59.944;11.010;2022-09-03T11:57:32;1.23;;;0.90;;
39654;SDS011;25336;59.944;11.010;2022-09-03T12:00:07;0.90;;;0.90;;
39654;SDS011;25336;59.944;11.010;2022-09-03T12:02:42;1.92;;;1.40;;
39654;SDS011;25336;59.944;11.010;2022-09-03T12:05:19;1.30;;;1.20;;
39654;SDS011;25336;59.944;11.010;2022-09-03T12:13:52;1.23;;;1.13;;
39654;SDS011;25336;59.944;11.010;2022-09-03T12:19:16;1.35;;;1.25;;
39654;SDS011;25336;59.944;11.010;2022-09-03T12:21:53;1.20;;;1.10;;
39654;SDS011;25336;59.944;11.010;2022-09-03T12:24:20;1.13;;;1.05;;
39654;SDS011;25336;59.944;11.010;2022-09-03T12:26:47;1.20;;;1.10;;
39654;SDS011;25336;59.944;11.010;2022-09-03T12:29:23;1.27;;;1.17;;
39654;SDS011;25336;59.944;11.010;2022-09-03T12:31:50;1.65;;;1.30;;
39654;SDS011;25336;59.944;11.010;2022-09-03T12:34:17;1.77;;;1.48;;
39654;SDS011;25336;59.944;11.010;2022-09-03T12:36:45;1.35;;;1.20;;
39654;SDS011;25336;59.944;11.010;2022-09-03T12:39:23;2.25;;;1.17;;
39654;SDS011;25336;59.944;11.010;2022-09-03T12:41:54;1.67;;;1.45;;
39654;SDS011;25336;59.944;11.010;2022-09-03T12:44:37;1.50;;;1.40;;
39654;SDS011;25336;59.944;11.010;2022-09-03T12:49:37;1.77;;;1.23;;
39654;SDS011;25336;59.944;11.010;2022-09-03T12:52:10;1.70;;;1.60;;
39654;SDS011;25336;59.944;11.010;2022-09-03T12:54:49;1.90;;;1.52;;
39654;SDS011;25336;59.944;11.010;2022-09-03T12:57:26;2.25;;;1.50;;
39654;SDS011;25336;59.944;11.010;2022-09-03T12:59:59;1.45;;;1.35;;
39654;SDS011;25336;59.944;11.010;2022-09-03T13:02:34;2.28;;;1.50;;
39654;SDS011;25336;59.944;11.010;2022-09-03T13:05:04;1.50;;;1.40;;
39654;SDS011;25336;59.944;11.010;2022-09-03T13:07:35;7.47;;;1.35;;
39654;SDS011;25336;59.944;11.010;2022-09-03T13:10:03;1.98;;;1.38;;
39654;SDS011;25336;59.944;11.010;2022-09-03T13:12:33;3.97;;;1.67;;
39654;SDS011;25336;59.944;11.010;2022-09-03T13:15:08;1.65;;;1.33;;
39654;SDS011;25336;59.944;11.010;2022-09-03T13:21:05;1.80;;;1.60;;
39654;SDS011;25336;59.944;11.010;2022-09-03T13:23:52;1.60;;;1.50;;
39654;SDS011;25336;59.944;11.010;2022-09-03T13:31:56;1.65;;;1.55;;
39654;SDS011;25336;59.944;11.010;2022-09-03T13:34:31;3.45;;;1.40;;
39654;SDS011;25336;59.944;11.010;2022-09-03T13:39:56;1.40;;;1.30;;
39654;SDS011;25336;59.944;11.010;2022-09-03T13:42:35;1.55;;;1.45;;
39654;SDS011;25336;59.944;11.010;2022-09-03T13:48:06;3.13;;;1.98;;
39654;SDS011;25336;59.944;11.010;2022-09-03T13:51:10;7.15;;;4.70;;
39654;SDS011;25336;59.944;11.010;2022-09-03T13:53:46;5.22;;;2.95;;
39654;SDS011;25336;59.944;11.010;2022-09-03T13:59:44;2.17;;;1.75;;
39654;SDS011;25336;59.944;11.010;2022-09-03T14:11:20;11.35;;;7.40;;
39654;SDS011;25336;59.944;11.010;2022-09-03T14:16:47;16.42;;;10.00;;
39654;SDS011;25336;59.944;11.010;2022-09-03T14:22:04;2.22;;;1.70;;
39654;SDS011;25336;59.944;11.010;2022-09-03T14:24:49;2.40;;;2.20;;
39654;SDS011;25336;59.944;11.010;2022-09-03T14:27:25;2.28;;;1.80;;
39654;SDS011;25336;59.944;11.010;2022-09-03T14:29:59;1.60;;;1.50;;
39654;SDS011;25336;59.944;11.010;2022-09-03T14:36:13;1.90;;;1.80;;
39654;SDS011;25336;59.944;11.010;2022-09-03T14:38:35;3.95;;;1.33;;
39654;SDS011;25336;59.944;11.010;2022-09-03T14:57:52;1.63;;;1.10;;
39654;SDS011;25336;59.944;11.010;2022-09-03T15:00:31;1.00;;;1.00;;
39654;SDS011;25336;59.944;11.010;2022-09-03T15:06:01;1.13;;;1.02;;
39654;SDS011;25336;59.944;11.010;2022-09-03T15:08:46;1.10;;;0.85;;
39654;SDS011;25336;59.944;11.010;2022-09-03T15:11:19;2.35;;;1.55;;
39654;SDS011;25336;59.944;11.010;2022-09-03T15:14:23;5.22;;;2.58;;
39654;SDS011;25336;59.944;11.010;2022-09-03T15:17:00;3.05;;;1.77;;
39654;SDS011;25336;59.944;11.010;2022-09-03T15:25:29;1.25;;;1.15;;
39654;SDS011;25336;59.944;11.010;2022-09-03T15:30:58;1.95;;;1.50;;
39654;SDS011;25336;59.944;11.010;2022-09-03T15:33:54;1.42;;;1.20;;
39654;SDS011;25336;59.944;11.010;2022-09-03T15:36:25;5.10;;;2.67;;
39654;SDS011;25336;59.944;11.010;2022-09-03T15:39:00;5.85;;;3.65;;
39654;SDS011;25336;59.944;11.010;2022-09-03T15:41:49;2.22;;;1.80;;
39654;SDS011;25336;59.944;11.010;2022-09-03T15:44:25;1.20;;;1.10;;
39654;SDS011;25336;59.944;11.010;2022-09-03T15:46:59;2.03;;;1.10;;
39654;SDS011;25336;59.944;11.010;2022-09-03T15:55:00;12.18;;;5.25;;
39654;SDS011;25336;59.944;11.010;2022-09-03T16:00:30;3.22;;;2.15;;
39654;SDS011;25336;59.944;11.010;2022-09-03T16:03:00;1.92;;;1.30;;
39654;SDS011;25336;59.944;11.010;2022-09-03T16:05:45;1.15;;;1.05;;
39654;SDS011;25336;59.944;11.010;2022-09-03T16:18:54;1.15;;;1.05;;
39654;SDS011;25336;59.944;11.010;2022-09-03T16:23:57;1.42;;;1.33;;
39654;SDS011;25336;59.944;11.010;2022-09-03T16:26:31;1.00;;;1.00;;
39654;SDS011;25336;59.944;11.010;2022-09-03T16:29:11;1.30;;;1.15;;
39654;SDS011;25336;59.944;11.010;2022-09-03T16:34:52;1.30;;;1.20;;
39654;SDS011;25336;59.944;11.010;2022-09-03T16:48:29;1.23;;;1.13;;
39654;SDS011;25336;59.944;11.010;2022-09-03T16:59:08;1.58;;;1.13;;
39654;SDS011;25336;59.944;11.010;2022-09-03T17:04:31;2.75;;;1.38;;
39654;SDS011;25336;59.944;11.010;2022-09-03T17:09:38;1.40;;;1.30;;
39654;SDS011;25336;59.944;11.010;2022-09-03T17:15:29;1.05;;;0.95;;
39654;SDS011;25336;59.944;11.010;2022-09-03T17:18:23;5.25;;;1.20;;
39654;SDS011;25336;59.944;11.010;2022-09-03T17:26:20;1.80;;;1.35;;
39654;SDS011;25336;59.944;11.010;2022-09-03T17:31:55;1.65;;;1.35;;
39654;SDS011;25336;59.944;11.010;2022-09-03T17:34:50;2.58;;;1.77;;
39654;SDS011;25336;59.944;11.010;2022-09-03T17:37:45;2.15;;;1.95;;
39654;SDS011;25336;59.944;11.010;2022-09-03T17:43:17;2.50;;;1.48;;
39654;SDS011;25336;59.944;11.010;2022-09-03T17:46:15;1.52;;;1.42;;
39654;SDS011;25336;59.944;11.010;2022-09-03T17:48:59;1.20;;;1.10;;
39654;SDS011;25336;59.944;11.010;2022-09-03T17:56:25;4.13;;;3.65;;
39654;SDS011;25336;59.944;11.010;2022-09-03T18:01:36;4.23;;;2.83;;
39654;SDS011;25336;59.944;11.010;2022-09-03T18:07:04;3.50;;;2.10;;
39654;SDS011;25336;59.944;11.010;2022-09-03T18:09:45;3.80;;;1.90;;
39654;SDS011;25336;59.944;11.010;2022-09-03T18:15:10;2.45;;;2.25;;
39654;SDS011;25336;59.944;11.010;2022-09-03T18:17:44;2.13;;;1.83;;
39654;SDS011;25336;59.944;11.010;2022-09-03T18:20:31;1.83;;;1.70;;
39654;SDS011;25336;59.944;11.010;2022-09-03T18:26:43;5.80;;;4.15;;
39654;SDS011;25336;59.944;11.010;2022-09-03T18:29:37;7.53;;;4.32;;
39654;SDS011;25336;59.944;11.010;2022-09-03T18:32:42;7.07;;;4.45;;
39654;SDS011;25336;59.944;11.010;2022-09-03T18:35:28;9.55;;;5.80;;
39654;SDS011;25336;59.944;11.010;2022-09-03T18:38:14;8.88;;;5.55;;
39654;SDS011;25336;59.944;11.010;2022-09-03T18:53:28;9.25;;;7.32;;
39654;SDS011;25336;59.944;11.010;2022-09-03T19:01:49;6.93;;;6.15;;
39654;SDS011;25336;59.944;11.010;2022-09-03T19:10:49;5.68;;;4.40;;
39654;SDS011;25336;59.944;11.010;2022-09-03T19:13:38;7.85;;;5.25;;
39654;SDS011;25336;59.944;11.010;2022-09-03T19:16:42;4.50;;;4.07;;
39654;SDS011;25336;59.944;11.010;2022-09-03T19:22:45;5.28;;;3.72;;
39654;SDS011;25336;59.944;11.010;2022-09-03T19:25:30;4.00;;;3.33;;
39654;SDS011;25336;59.944;11.010;2022-09-03T19:47:03;3.92;;;3.63;;
39654;SDS011;25336;59.944;11.010;2022-09-03T19:52:57;4.07;;;3.40;;
39654;SDS011;25336;59.944;11.010;2022-09-03T19:55:54;4.53;;;4.13;;
39654;SDS011;25336;59.944;11.010;2022-09-03T19:58:42;5.68;;;4.05;;
39654;SDS011;25336;59.944;11.010;2022-09-03T20:01:33;4.63;;;4.07;;
39654;SDS011;25336;59.944;11.010;2022-09-03T20:04:19;6.07;;;4.88;;
39654;SDS011;25336;59.944;11.010;2022-09-03T20:07:14;7.07;;;5.25;;
39654;SDS011;25336;59.944;11.010;2022-09-03T20:09:59;7.90;;;6.05;;
39654;SDS011;25336;59.944;11.010;2022-09-03T20:13:08;13.52;;;7.10;;
39654;SDS011;25336;59.944;11.010;2022-09-03T20:15:58;9.10;;;7.65;;
39654;SDS011;25336;59.944;11.010;2022-09-03T20:23:52;5.45;;;4.25;;
39654;SDS011;25336;59.944;11.010;2022-09-03T20:29:34;3.50;;;2.60;;
39654;SDS011;25336;59.944;11.010;2022-09-03T20:37:43;3.13;;;2.50;;
39654;SDS011;25336;59.944;11.010;2022-09-03T20:43:19;2.88;;;2.63;;
39654;SDS011;25336;59.944;11.010;2022-09-03T20:51:35;4.60;;;3.60;;
39654;SDS011;25336;59.944;11.010;2022-09-03T20:56:59;4.22;;;2.95;;
39654;SDS011;25336;59.944;11.010;2022-09-03T21:13:23;2.63;;;2.42;;
39654;SDS011;25336;59.944;11.010;2022-09-03T21:24:12;2.20;;;2.00;;
39654;SDS011;25336;59.944;11.010;2022-09-03T21:26:44;3.05;;;2.40;;
39654;SDS011;25336;59.944;11.010;2022-09-03T21:34:49;19.30;;;9.32;;
39654;SDS011;25336;59.944;11.010;2022-09-03T21:37:13;14.63;;;7.05;;
39654;SDS011;25336;59.944;11.010;2022-09-03T21:39:41;13.73;;;6.15;;
39654;SDS011;25336;59.944;11.010;2022-09-03T21:42:29;5.75;;;3.78;;
39654;SDS011;25336;59.944;11.010;2022-09-03T21:47:47;2.85;;;2.20;;
39654;SDS011;25336;59.944;11.010;2022-09-03T21:50:18;3.22;;;2.20;;